Time;durP1;ratioP1;P1;durP2;ratioP2;P2;SDS_P1;SDS_P2;PMS_P1;PMS_P2;Temp;Humidity;BMP_temperature;BMP_pressure;BME280_temperature;BME280_humidity;BME280_pressure;Samples;Min_cycle;Max_cycle;Signal;HPM_P1;HPM_P2
2021/10/05 00:00:43;;;;;;;1.67;0.80;;;19.20;61.60;;;;;;5135368;27;20478;-54
2021/10/05 00:03:08;;;;;;;2.25;0.75;;;19.30;61.50;;;;;;5135405;27;20042;-56
2021/10/05 00:05:34;;;;;;;2.15;0.90;;;19.30;61.50;;;;;;5135398;27;20024;-59
2021/10/05 00:08:00;;;;;;;4.10;0.93;;;19.30;61.40;;;;;;5134592;27;20518;-59
2021/10/05 00:10:26;;;;;;;3.35;1.15;;;19.40;61.30;;;;;;5134928;27;20059;-57
2021/10/05 00:12:52;;;;;;;2.88;1.17;;;19.40;61.30;;;;;;5135184;27;20110;-56
2021/10/05 00:15:18;;;;;;;2.35;0.88;;;19.50;61.10;;;;;;5135061;27;20462;-58
2021/10/05 00:17:44;;;;;;;2.40;0.90;;;19.50;61.30;;;;;;5135252;27;20023;-53
2021/10/05 00:20:11;;;;;;;2.65;1.05;;;19.50;61.20;;;;;;5135086;27;20473;-59
2021/10/05 00:22:38;;;;;;;3.08;1.13;;;19.50;61.10;;;;;;5135055;27;20023;-58
2021/10/05 00:25:04;;;;;;;3.83;1.08;;;19.50;60.90;;;;;;5134856;27;20054;-57
2021/10/05 00:27:29;;;;;;;2.80;1.45;;;19.60;60.90;;;;;;5134869;27;20104;-58
2021/10/05 00:29:55;;;;;;;3.20;1.20;;;19.60;60.80;;;;;;5134799;27;20027;-57
2021/10/05 00:32:21;;;;;;;3.50;1.23;;;19.60;61.00;;;;;;5135038;27;20051;-56
2021/10/05 00:34:46;;;;;;;6.45;1.40;;;19.70;60.90;;;;;;5134769;27;20080;-55
2021/10/05 00:37:12;;;;;;;3.80;1.20;;;19.70;60.90;;;;;;5116403;27;20421;-57
2021/10/05 00:39:37;;;;;;;2.13;0.90;;;19.70;60.70;;;;;;5134537;27;20046;-61
2021/10/05 00:42:04;;;;;;;3.00;1.10;;;19.80;60.70;;;;;;5134641;27;20038;-57
2021/10/05 00:44:38;;;;;;;3.47;1.42;;;19.80;60.80;;;;;;5134546;27;20012;-57
2021/10/05 00:47:07;;;;;;;2.85;1.30;;;19.80;60.50;;;;;;5134854;27;20019;-57
2021/10/05 00:49:33;;;;;;;3.28;1.10;;;19.80;60.60;;;;;;5134408;27;20513;-56
2021/10/05 00:52:01;;;;;;;3.25;1.38;;;19.80;60.60;;;;;;5134437;27;20023;-56
2021/10/05 00:54:30;;;;;;;3.03;1.00;;;19.90;60.60;;;;;;5134368;27;20019;-57
2021/10/05 00:56:56;;;;;;;2.55;0.90;;;19.90;60.50;;;;;;5134563;27;20027;-59
2021/10/05 00:59:22;;;;;;;2.70;0.93;;;19.90;60.50;;;;;;5134272;27;20114;-54
2021/10/05 01:01:48;;;;;;;2.15;1.08;;;20.00;60.40;;;;;;5115700;27;20458;-58
2021/10/05 01:04:14;;;;;;;2.55;1.00;;;20.00;60.30;;;;;;5134420;27;20054;-60
2021/10/05 01:07:02;;;;;;;2.53;1.13;;;20.00;60.30;;;;;;5134102;27;20471;-58
2021/10/05 01:09:28;;;;;;;2.42;1.30;;;20.00;60.30;;;;;;5134341;27;20061;-58
2021/10/05 01:11:55;;;;;;;2.00;0.85;;;20.00;60.30;;;;;;5134055;27;20023;-55
2021/10/05 01:14:20;;;;;;;4.07;0.95;;;20.00;60.30;;;;;;5134318;27;20033;-55
2021/10/05 01:16:47;;;;;;;3.42;1.20;;;20.00;60.30;;;;;;5134128;27;20106;-56
2021/10/05 01:19:13;;;;;;;1.40;0.88;;;20.10;60.40;;;;;;5133910;27;20023;-58
2021/10/05 01:21:38;;;;;;;2.90;1.30;;;20.10;60.30;;;;;;5134155;27;20019;-59
2021/10/05 01:24:10;;;;;;;3.40;1.05;;;20.10;60.30;;;;;;5133918;27;20370;-58
2021/10/05 01:26:36;;;;;;;2.33;1.10;;;20.10;60.20;;;;;;5115583;27;20027;-58
2021/10/05 01:29:04;;;;;;;3.58;1.20;;;20.10;60.20;;;;;;5133788;27;20096;-57
2021/10/05 01:31:31;;;;;;;4.50;1.30;;;20.10;60.30;;;;;;5133956;28;20067;-58
2021/10/05 01:33:58;;;;;;;2.53;1.10;;;20.20;60.00;;;;;;5133934;28;20419;-61
2021/10/05 01:36:24;;;;;;;2.25;1.20;;;20.20;60.20;;;;;;5115542;28;20015;-57
2021/10/05 01:38:49;;;;;;;2.85;1.08;;;20.20;60.10;;;;;;5133700;28;20047;-60
2021/10/05 01:41:15;;;;;;;2.47;1.10;;;20.20;60.10;;;;;;5133828;28;20023;-59
2021/10/05 01:43:41;;;;;;;3.40;1.23;;;20.20;60.00;;;;;;5133837;28;20027;-56
2021/10/05 01:46:13;;;;;;;2.53;1.15;;;20.30;59.60;;;;;;5133854;28;20023;-62
2021/10/05 01:48:42;;;;;;;3.28;1.33;;;20.30;59.90;;;;;;5133668;28;20066;-59
2021/10/05 01:51:08;;;;;;;3.88;1.20;;;20.30;60.00;;;;;;5133896;28;20087;-58
2021/10/05 01:53:34;;;;;;;5.32;1.50;;;20.30;60.10;;;;;;5134091;28;20027;-62
2021/10/05 01:56:00;;;;;;;3.88;1.30;;;20.30;60.10;;;;;;5133769;28;20029;-58
2021/10/05 01:58:26;;;;;;;2.92;1.30;;;20.30;59.90;;;;;;5133754;28;20110;-58
2021/10/05 02:00:51;;;;;;;3.72;1.40;;;20.30;59.90;;;;;;5133719;28;20027;-58
2021/10/05 02:03:19;;;;;;;3.08;0.93;;;20.30;60.00;;;;;;5133749;28;20066;-60
2021/10/05 02:05:45;;;;;;;3.13;1.25;;;20.30;60.00;;;;;;5133712;28;20092;-59
2021/10/05 02:08:10;;;;;;;3.55;1.40;;;20.30;60.00;;;;;;5133880;28;20039;-59
2021/10/05 02:10:36;;;;;;;3.85;1.50;;;20.30;60.10;;;;;;5115213;28;20462;-59
2021/10/05 02:13:03;;;;;;;3.13;1.45;;;20.30;59.60;;;;;;5133647;28;20106;-58
2021/10/05 02:15:28;;;;;;;4.40;1.40;;;20.30;59.90;;;;;;5133645;28;20026;-58
2021/10/05 02:17:54;;;;;;;3.88;1.20;;;20.30;59.90;;;;;;5133480;28;20023;-58
2021/10/05 02:20:19;;;;;;;3.20;1.33;;;20.30;60.10;;;;;;5133557;28;20027;-56
2021/10/05 02:22:45;;;;;;;3.05;1.42;;;20.20;60.00;;;;;;5133697;28;20144;-59
2021/10/05 02:25:11;;;;;;;3.33;1.40;;;20.30;59.90;;;;;;5133449;28;20482;-60
2021/10/05 02:27:36;;;;;;;3.90;1.10;;;20.30;59.90;;;;;;5133333;28;20106;-58
2021/10/05 02:30:04;;;;;;;2.60;1.17;;;20.30;59.90;;;;;;5133335;28;20031;-56
2021/10/05 02:32:30;;;;;;;3.03;1.35;;;20.30;59.80;;;;;;5135236;27;20025;-54
2021/10/05 02:34:56;;;;;;;2.65;1.25;;;20.30;59.80;;;;;;5137088;27;20023;-57
2021/10/05 02:37:22;;;;;;;2.47;1.20;;;20.30;59.90;;;;;;5118706;27;20038;-55
2021/10/05 02:39:48;;;;;;;2.53;1.10;;;20.30;60.00;;;;;;5136872;27;20402;-52
2021/10/05 02:42:13;;;;;;;3.13;1.38;;;20.30;59.90;;;;;;5137092;27;20033;-56
2021/10/05 02:44:40;;;;;;;2.83;1.27;;;20.30;59.90;;;;;;5136997;27;20098;-54
2021/10/05 02:47:06;;;;;;;3.13;1.33;;;20.20;59.80;;;;;;5137185;27;20027;-58
2021/10/05 02:49:32;;;;;;;6.53;1.60;;;20.30;59.90;;;;;;5136777;27;20031;-58
2021/10/05 02:51:58;;;;;;;3.70;1.52;;;20.30;59.80;;;;;;5118481;27;20484;-57
2021/10/05 02:54:24;;;;;;;4.53;1.60;;;20.30;59.70;;;;;;5136754;27;20055;-59
2021/10/05 02:56:49;;;;;;;3.50;1.10;;;20.30;59.70;;;;;;5136840;27;20493;-56
2021/10/05 02:59:16;;;;;;;3.80;1.35;;;20.30;59.80;;;;;;5118386;27;20030;-57
2021/10/05 03:01:42;;;;;;;2.97;1.25;;;20.30;59.70;;;;;;5136669;27;20026;-57
2021/10/05 03:04:07;;;;;;;2.67;1.30;;;20.30;59.80;;;;;;5136650;27;20023;-59
2021/10/05 03:06:33;;;;;;;3.88;1.65;;;20.30;59.70;;;;;;5136608;27;20103;-56
2021/10/05 03:08:59;;;;;;;3.13;1.40;;;20.30;59.70;;;;;;5136692;27;20386;-58
2021/10/05 03:11:24;;;;;;;2.35;1.05;;;20.30;59.60;;;;;;5136458;27;20486;-56
2021/10/05 03:13:50;;;;;;;3.50;1.17;;;20.30;59.50;;;;;;5136367;27;20386;-57
2021/10/05 03:16:15;;;;;;;3.22;1.30;;;20.30;59.40;;;;;;5136398;27;20387;-59
2021/10/05 03:18:41;;;;;;;2.47;1.05;;;20.30;59.30;;;;;;5136333;27;20088;-57
2021/10/05 03:21:09;;;;;;;3.85;1.40;;;20.30;59.30;;;;;;5136305;27;20015;-60
2021/10/05 03:23:34;;;;;;;3.10;1.30;;;20.30;59.60;;;;;;5136179;27;20031;-57
2021/10/05 03:26:00;;;;;;;2.72;1.35;;;20.30;59.40;;;;;;5136177;27;20030;-57
2021/10/05 03:28:25;;;;;;;3.67;1.30;;;20.30;59.60;;;;;;5117662;27;20410;-56
2021/10/05 03:30:51;;;;;;;2.65;1.20;;;20.30;59.50;;;;;;5136065;27;20035;-55
2021/10/05 03:33:17;;;;;;;2.60;1.08;;;20.30;59.30;;;;;;5136052;27;20023;-56
2021/10/05 03:35:42;;;;;;;3.08;1.50;;;20.30;59.60;;;;;;5117581;27;20023;-55
2021/10/05 03:38:08;;;;;;;1.55;0.70;;;20.30;59.50;;;;;;5135956;27;20374;-58
2021/10/05 03:40:34;;;;;;;2.58;1.20;;;20.30;59.50;;;;;;5135767;27;20039;-57
2021/10/05 03:42:59;;;;;;;2.78;1.15;;;20.30;59.50;;;;;;5134919;27;20027;-56
2021/10/05 03:45:25;;;;;;;3.63;1.30;;;20.30;59.30;;;;;;5135665;27;20473;-58
2021/10/05 03:47:50;;;;;;;3.50;1.25;;;20.30;59.30;;;;;;5135934;27;20488;-56
2021/10/05 03:50:18;;;;;;;2.10;0.90;;;20.30;59.20;;;;;;5135698;27;20019;-54
2021/10/05 03:52:43;;;;;;;3.70;1.30;;;20.30;59.20;;;;;;5135749;27;20057;-54
2021/10/05 03:55:09;;;;;;;2.88;1.08;;;20.30;59.40;;;;;;5135702;27;20050;-56
2021/10/05 03:57:35;;;;;;;2.80;1.20;;;20.30;59.40;;;;;;5135530;27;20430;-55
2021/10/05 04:00:03;;;;;;;2.42;1.10;;;20.30;59.30;;;;;;5135770;27;20031;-56
2021/10/05 04:02:28;;;;;;;2.13;1.13;;;20.30;59.20;;;;;;5135291;27;20030;-55
2021/10/05 04:04:54;;;;;;;5.38;1.42;;;20.30;59.20;;;;;;5135429;27;20031;-55
2021/10/05 04:07:19;;;;;;;3.20;1.40;;;20.40;59.20;;;;;;5135381;27;20023;-54
2021/10/05 04:09:45;;;;;;;3.92;1.38;;;20.30;59.20;;;;;;5116765;27;20470;-56
2021/10/05 04:12:10;;;;;;;3.47;1.40;;;20.40;59.00;;;;;;5135177;27;20034;-55
2021/10/05 04:14:37;;;;;;;3.90;1.30;;;20.40;59.00;;;;;;5135237;27;20102;-53
2021/10/05 04:17:03;;;;;;;3.17;1.25;;;20.40;59.00;;;;;;5135147;27;20016;-52
2021/10/05 04:19:28;;;;;;;3.92;1.55;;;20.40;59.00;;;;;;5135170;27;20071;-53
2021/10/05 04:21:54;;;;;;;2.10;1.00;;;20.40;58.90;;;;;;5135110;27;20110;-55
2021/10/05 04:24:19;;;;;;;2.67;1.20;;;20.40;58.80;;;;;;5135091;27;20027;-57
2021/10/05 04:26:45;;;;;;;3.58;1.40;;;20.50;58.80;;;;;;5135232;27;20030;-52
2021/10/05 04:29:10;;;;;;;3.35;1.50;;;20.50;58.80;;;;;;5134800;27;20649;-52
2021/10/05 04:31:37;;;;;;;3.45;1.00;;;20.50;58.60;;;;;;5134895;27;20072;-53
2021/10/05 04:34:03;;;;;;;3.15;1.30;;;20.50;58.80;;;;;;5134861;27;20075;-54
2021/10/05 04:36:29;;;;;;;2.90;1.10;;;20.50;58.80;;;;;;5134820;27;20019;-58
2021/10/05 04:38:54;;;;;;;4.03;1.30;;;20.50;58.70;;;;;;5134517;27;20542;-57
2021/10/05 04:41:20;;;;;;;3.03;1.38;;;20.60;58.70;;;;;;5116177;27;20030;-59
2021/10/05 04:43:46;;;;;;;2.55;1.08;;;20.60;58.60;;;;;;5134605;27;20033;-57
2021/10/05 04:46:11;;;;;;;2.05;0.98;;;20.60;58.70;;;;;;5134719;27;20027;-57
2021/10/05 04:48:37;;;;;;;2.25;0.90;;;20.70;58.60;;;;;;5134516;27;20027;-56
2021/10/05 04:51:02;;;;;;;3.42;1.50;;;20.70;58.50;;;;;;5134455;27;20447;-55
2021/10/05 04:53:28;;;;;;;3.00;1.30;;;20.70;58.50;;;;;;5134480;27;20030;-58
2021/10/05 04:55:53;;;;;;;5.10;1.30;;;20.70;58.40;;;;;;5134212;27;20366;-54
2021/10/05 04:58:19;;;;;;;2.35;1.23;;;20.80;58.30;;;;;;5134409;27;20088;-57
2021/10/05 05:00:45;;;;;;;3.40;1.30;;;20.80;58.20;;;;;;5134447;27;20414;-57
2021/10/05 05:03:10;;;;;;;3.28;1.25;;;20.80;58.40;;;;;;5115907;27;20466;-59
2021/10/05 05:05:36;;;;;;;2.40;1.10;;;20.80;58.30;;;;;;5134245;27;20034;-55
2021/10/05 05:08:03;;;;;;;2.60;1.23;;;20.80;58.20;;;;;;5134229;27;20058;-57
2021/10/05 05:10:29;;;;;;;4.20;0.98;;;20.80;58.20;;;;;;5134092;27;20034;-54
2021/10/05 05:12:55;;;;;;;2.35;1.10;;;20.90;58.30;;;;;;5134136;27;20031;-56
2021/10/05 05:15:21;;;;;;;2.53;1.20;;;20.80;58.30;;;;;;5134442;27;20027;-55
2021/10/05 05:17:46;;;;;;;2.05;1.08;;;20.90;58.30;;;;;;5134182;27;20054;-55
2021/10/05 05:20:12;;;;;;;3.22;1.10;;;20.90;58.30;;;;;;5134322;27;20470;-55
2021/10/05 05:22:38;;;;;;;2.45;0.98;;;20.90;58.20;;;;;;5134269;27;20019;-56
2021/10/05 05:25:05;;;;;;;2.38;1.10;;;20.90;58.30;;;;;;5133896;27;20026;-58
2021/10/05 05:27:31;;;;;;;2.65;1.05;;;20.90;58.20;;;;;;5134160;27;20098;-56
2021/10/05 05:29:56;;;;;;;3.50;1.10;;;20.90;58.20;;;;;;5134074;27;20439;-55
2021/10/05 05:32:22;;;;;;;2.25;1.08;;;20.90;58.20;;;;;;5133926;27;20482;-58
2021/10/05 05:34:48;;;;;;;1.73;0.90;;;20.90;58.10;;;;;;5133960;28;20024;-55
2021/10/05 05:37:13;;;;;;;2.83;1.10;;;20.90;58.20;;;;;;5133916;28;20489;-56
2021/10/05 05:39:43;;;;;;;2.15;1.00;;;21.00;58.10;;;;;;5133717;28;20043;-54
2021/10/05 05:42:12;;;;;;;2.75;1.10;;;20.90;58.20;;;;;;5133785;28;20020;-56
2021/10/05 05:44:39;;;;;;;3.25;1.10;;;20.90;58.00;;;;;;5133830;28;20027;-57
2021/10/05 05:47:05;;;;;;;2.47;1.10;;;21.00;58.10;;;;;;5133739;28;20023;-56
2021/10/05 05:49:32;;;;;;;2.45;1.02;;;20.90;58.20;;;;;;5133555;28;20066;-57
2021/10/05 05:51:58;;;;;;;2.38;1.30;;;21.00;58.00;;;;;;5133814;28;20031;-57
2021/10/05 05:54:23;;;;;;;2.47;1.20;;;21.00;58.10;;;;;;5133641;28;20050;-56
2021/10/05 05:56:49;;;;;;;2.42;1.15;;;21.00;58.00;;;;;;5133714;28;20106;-59
2021/10/05 05:59:15;;;;;;;3.33;1.10;;;21.00;58.00;;;;;;5133793;28;20374;-58
2021/10/05 06:01:40;;;;;;;2.83;1.08;;;21.00;58.00;;;;;;5133565;28;20069;-55
2021/10/05 06:04:06;;;;;;;2.30;0.95;;;21.00;58.00;;;;;;5133737;28;20554;-53
2021/10/05 06:06:32;;;;;;;2.28;1.00;;;21.00;58.00;;;;;;5134261;27;20464;-57
2021/10/05 06:09:00;;;;;;;3.42;1.23;;;21.00;57.90;;;;;;5137596;27;20378;-57
2021/10/05 06:11:29;;;;;;;1.75;1.00;;;21.00;58.00;;;;;;5137626;27;20019;-57
2021/10/05 06:13:54;;;;;;;3.58;1.10;;;21.00;57.90;;;;;;5137527;27;20022;-55
2021/10/05 06:16:20;;;;;;;2.60;0.95;;;21.00;57.90;;;;;;5137544;27;20382;-57
2021/10/05 06:18:45;;;;;;;2.22;1.00;;;21.00;57.90;;;;;;5119259;27;20038;-55
2021/10/05 06:21:12;;;;;;;2.13;0.98;;;21.00;57.90;;;;;;5137467;27;20051;-55
2021/10/05 06:23:38;;;;;;;2.40;0.98;;;21.00;57.90;;;;;;5137272;27;20027;-56
2021/10/05 06:26:04;;;;;;;3.88;1.70;;;21.00;57.80;;;;;;5137474;27;20020;-56
2021/10/05 06:28:31;;;;;;;1.88;0.90;;;21.10;57.80;;;;;;5137152;27;20035;-52
2021/10/05 06:30:57;;;;;;;1.65;0.90;;;21.10;57.80;;;;;;5137468;27;20029;-55
2021/10/05 06:33:23;;;;;;;4.10;1.10;;;21.10;57.70;;;;;;5137210;27;20027;-55
2021/10/05 06:35:48;;;;;;;1.67;0.85;;;21.10;57.70;;;;;;5137239;27;20019;-57
2021/10/05 06:38:14;;;;;;;2.65;1.02;;;21.10;57.70;;;;;;5118560;27;20023;-56
2021/10/05 06:40:41;;;;;;;4.15;1.20;;;21.10;57.70;;;;;;5136711;27;20458;-56
2021/10/05 06:43:07;;;;;;;2.38;0.95;;;21.10;57.70;;;;;;5137016;27;20027;-58
2021/10/05 06:45:33;;;;;;;3.05;1.25;;;21.10;57.60;;;;;;5136915;27;20106;-55
2021/10/05 06:47:59;;;;;;;2.97;1.00;;;21.10;57.60;;;;;;5118353;27;20028;-57
2021/10/05 06:50:25;;;;;;;2.15;0.90;;;21.20;57.60;;;;;;5137007;27;20072;-58
2021/10/05 06:52:51;;;;;;;2.65;1.20;;;21.20;57.70;;;;;;5136725;27;20019;-56
2021/10/05 06:55:17;;;;;;;2.08;0.88;;;21.20;57.70;;;;;;5136776;27;20126;-59
2021/10/05 06:57:43;;;;;;;2.25;1.02;;;21.20;57.60;;;;;;5136813;27;20165;-58
2021/10/05 07:00:15;;;;;;;2.47;1.00;;;21.20;57.60;;;;;;5136464;27;20058;-56
2021/10/05 07:02:42;;;;;;;2.33;1.10;;;21.20;57.60;;;;;;5136638;27;20500;-56
2021/10/05 07:05:08;;;;;;;3.60;1.20;;;21.20;57.60;;;;;;5136419;27;20031;-60
2021/10/05 07:07:41;;;;;;;1.92;0.75;;;21.20;57.30;;;;;;5128142;27;20146;-57
2021/10/05 07:10:08;;;;;;;1.23;0.70;;;21.20;57.50;;;;;;5120165;27;20406;-55
2021/10/05 07:12:34;;;;;;;2.33;0.95;;;21.20;57.40;;;;;;5135405;27;20023;-56
2021/10/05 07:15:01;;;;;;;2.72;1.00;;;21.20;57.40;;;;;;5122240;27;20016;-55
2021/10/05 07:17:26;;;;;;;2.30;0.95;;;21.30;57.50;;;;;;5114662;28;20038;-56
2021/10/05 07:19:52;;;;;;;3.28;1.15;;;21.30;57.30;;;;;;5133582;27;20023;-58
2021/10/05 07:22:18;;;;;;;2.85;1.15;;;21.40;57.20;;;;;;5135555;27;20081;-56
2021/10/05 07:24:44;;;;;;;2.03;0.95;;;21.40;57.00;;;;;;5134825;27;20058;-57
2021/10/05 07:27:09;;;;;;;2.45;1.10;;;21.30;57.20;;;;;;5134419;27;20019;-55
2021/10/05 07:29:35;;;;;;;2.42;1.05;;;21.30;57.20;;;;;;5134439;27;20050;-53
2021/10/05 07:32:01;;;;;;;2.20;1.00;;;21.40;57.30;;;;;;5117099;27;20019;-58
2021/10/05 07:34:26;;;;;;;2.35;0.85;;;21.40;57.30;;;;;;5134969;27;20063;-57
2021/10/05 07:36:52;;;;;;;2.13;1.00;;;21.40;57.20;;;;;;5134779;27;20042;-56
2021/10/05 07:39:18;;;;;;;2.47;1.17;;;21.50;57.20;;;;;;5134878;27;20050;-55
2021/10/05 07:41:44;;;;;;;2.90;0.90;;;21.50;57.20;;;;;;5135083;27;20039;-54
2021/10/05 07:44:12;;;;;;;2.58;0.95;;;21.50;57.10;;;;;;5135238;27;20084;-53
2021/10/05 07:46:39;;;;;;;2.70;0.90;;;21.50;57.10;;;;;;5134979;27;20046;-58
2021/10/05 07:49:06;;;;;;;2.85;0.95;;;21.50;57.10;;;;;;5134531;27;20043;-52
2021/10/05 07:51:31;;;;;;;5.07;1.27;;;21.50;57.10;;;;;;5135097;27;20027;-55
2021/10/05 07:53:57;;;;;;;2.00;1.02;;;21.50;57.10;;;;;;5134443;27;20038;-58
2021/10/05 07:56:23;;;;;;;2.42;0.77;;;21.50;57.10;;;;;;5134880;27;20057;-55
2021/10/05 07:58:48;;;;;;;2.72;1.00;;;21.50;57.20;;;;;;5134089;27;20028;-55
2021/10/05 08:01:14;;;;;;;2.63;1.10;;;21.50;57.20;;;;;;5134744;27;20027;-53
2021/10/05 08:03:39;;;;;;;3.03;1.02;;;21.50;57.20;;;;;;5134215;27;20414;-56
2021/10/05 08:06:05;;;;;;;3.40;1.00;;;21.50;57.20;;;;;;5134709;27;20469;-55
2021/10/05 08:08:31;;;;;;;2.67;1.00;;;21.50;57.20;;;;;;5133709;27;20031;-55
2021/10/05 08:10:56;;;;;;;1.75;0.98;;;21.50;57.20;;;;;;5134513;27;20019;-56
2021/10/05 08:13:22;;;;;;;2.50;1.10;;;21.50;57.30;;;;;;5134304;27;20023;-55
2021/10/05 08:15:47;;;;;;;2.90;0.90;;;21.50;57.40;;;;;;5134474;27;20058;-55
2021/10/05 08:18:13;;;;;;;3.75;0.98;;;21.50;57.40;;;;;;5133280;27;20078;-56
2021/10/05 08:20:39;;;;;;;4.85;1.08;;;21.50;56.90;;;;;;5134761;27;20030;-57
2021/10/05 08:23:05;;;;;;;2.45;0.75;;;21.40;56.40;;;;;;5133627;27;20019;-57
2021/10/05 08:25:31;;;;;;;2.35;0.75;;;21.30;56.70;;;;;;5134121;27;20031;-53
2021/10/05 08:27:57;;;;;;;4.15;0.80;;;21.40;57.20;;;;;;5133631;27;20474;-57
2021/10/05 08:30:22;;;;;;;4.10;1.10;;;21.40;57.30;;;;;;5133386;27;20034;-55
2021/10/05 08:32:48;;;;;;;3.50;1.30;;;21.40;57.30;;;;;;5133493;27;20379;-51
2021/10/05 08:35:14;;;;;;;2.65;1.00;;;21.50;57.20;;;;;;5133153;27;20041;-55
2021/10/05 08:37:41;;;;;;;3.00;1.00;;;21.50;57.20;;;;;;5133570;27;20111;-59
2021/10/05 08:40:09;;;;;;;3.20;0.95;;;21.40;57.10;;;;;;5133555;27;20059;-56
2021/10/05 08:42:35;;;;;;;2.38;1.17;;;21.50;57.00;;;;;;5133331;27;20423;-51
2021/10/05 08:45:01;;;;;;;2.80;0.90;;;21.50;57.00;;;;;;5133690;27;20023;-52
2021/10/05 08:47:29;;;;;;;4.00;1.00;;;21.50;57.00;;;;;;5133300;27;20015;-55
2021/10/05 08:49:55;;;;;;;3.75;0.90;;;21.50;56.20;;;;;;5133262;27;20035;-58
2021/10/05 08:52:21;;;;;;;1.35;0.70;;;21.60;55.70;;;;;;5133680;27;20106;-56
2021/10/05 08:54:46;;;;;;;1.77;0.77;;;21.70;56.10;;;;;;5132711;27;20110;-56
2021/10/05 08:57:12;;;;;;;7.53;1.60;;;21.70;55.90;;;;;;5133149;27;20030;-59
2021/10/05 08:59:38;;;;;;;4.63;1.58;;;21.60;54.20;;;;;;5133247;27;20019;-56
2021/10/05 09:02:14;;;;;;;5.32;0.80;;;21.40;54.70;;;;;;5133467;27;20035;-57
2021/10/05 09:04:45;;;;;;;4.25;1.00;;;21.40;55.70;;;;;;5132281;27;20504;-60
2021/10/05 09:07:20;;;;;;;4.05;1.20;;;21.50;56.50;;;;;;5132882;27;20038;-55
2021/10/05 09:09:56;;;;;;;5.20;0.90;;;21.50;56.40;;;;;;5133009;27;20027;-55
2021/10/05 09:12:30;;;;;;;2.70;0.88;;;21.50;56.60;;;;;;5133259;27;20034;-54
2021/10/05 09:14:56;;;;;;;4.93;1.10;;;21.60;56.70;;;;;;5131813;27;20019;-58
2021/10/05 09:17:24;;;;;;;2.50;0.90;;;21.60;56.70;;;;;;5112115;28;20031;-59
2021/10/05 09:19:51;;;;;;;3.42;0.95;;;21.60;56.80;;;;;;5112352;28;20039;-57
2021/10/05 09:22:20;;;;;;;4.82;1.08;;;21.60;56.90;;;;;;5112223;28;20020;-55
2021/10/05 09:24:47;;;;;;;2.53;0.77;;;21.60;57.00;;;;;;5111804;28;20024;-56
2021/10/05 09:27:14;;;;;;;3.95;0.82;;;21.70;57.10;;;;;;5113171;27;20031;-55
2021/10/05 09:29:41;;;;;;;4.75;0.90;;;21.60;57.10;;;;;;5112174;28;20036;-55
2021/10/05 09:32:12;;;;;;;1.98;0.65;;;21.70;57.10;;;;;;5112413;28;20020;-59
2021/10/05 09:34:40;;;;;;;1.63;0.80;;;21.70;57.20;;;;;;5111937;28;20466;-56
2021/10/05 09:37:11;;;;;;;4.10;1.25;;;21.70;57.30;;;;;;5122048;28;20027;-55
2021/10/05 09:39:45;;;;;;;3.75;1.20;;;21.70;57.40;;;;;;5132720;28;20069;-57
2021/10/05 09:42:18;;;;;;;7.88;1.23;;;21.70;57.20;;;;;;5136521;27;20039;-59
2021/10/05 09:44:58;;;;;;;4.45;1.10;;;21.70;57.20;;;;;;5137256;27;20042;-57
2021/10/05 09:47:44;;;;;;;5.63;0.90;;;21.70;57.40;;;;;;5136409;27;20019;-59
2021/10/05 09:50:44;;;;;;;4.15;1.17;;;21.80;57.50;;;;;;5137121;27;20095;-57
2021/10/05 09:53:12;;;;;;;4.68;1.58;;;21.90;57.40;;;;;;5131426;27;20039;-55
2021/10/05 09:55:40;;;;;;;3.40;1.00;;;21.90;57.20;;;;;;5137380;27;20027;-58
2021/10/05 09:58:07;;;;;;;9.18;1.20;;;21.90;57.50;;;;;;5137561;27;20147;-56
2021/10/05 10:00:37;;;;;;;4.47;0.93;;;21.90;57.60;;;;;;5137646;27;20019;-56
2021/10/05 10:03:05;;;;;;;2.20;0.85;;;22.00;57.50;;;;;;5137626;27;20031;-58
2021/10/05 10:05:30;;;;;;;2.72;0.93;;;22.00;57.60;;;;;;5137835;27;20023;-57
2021/10/05 10:07:57;;;;;;;7.35;1.23;;;22.00;57.60;;;;;;5118919;27;20029;-55
2021/10/05 10:10:26;;;;;;;5.50;1.00;;;22.00;57.60;;;;;;5137447;27;20023;-53
2021/10/05 10:12:54;;;;;;;2.80;0.90;;;22.10;57.60;;;;;;5137874;27;20072;-56
2021/10/05 10:15:24;;;;;;;8.05;1.20;;;22.10;57.70;;;;;;5137582;27;20023;-59
2021/10/05 10:17:49;;;;;;;6.60;0.93;;;22.20;57.30;;;;;;5137443;27;20103;-59
2021/10/05 10:20:26;;;;;;;2.33;0.75;;;22.20;57.40;;;;;;5137347;27;20385;-56
2021/10/05 10:22:52;;;;;;;2.53;0.68;;;22.20;57.50;;;;;;5137242;27;20146;-56
2021/10/05 10:25:27;;;;;;;3.83;1.10;;;22.20;57.60;;;;;;5136550;27;20129;-59
2021/10/05 10:27:57;;;;;;;3.00;0.90;;;22.30;57.50;;;;;;5136782;27;20102;-56
2021/10/05 10:30:27;;;;;;;1.77;0.60;;;22.30;57.50;;;;;;5118133;27;20057;-60
2021/10/05 10:33:00;;;;;;;7.38;1.17;;;22.30;57.50;;;;;;5136682;27;20041;-61
2021/10/05 10:35:26;;;;;;;2.25;0.95;;;22.30;57.50;;;;;;5136772;27;20478;-59
2021/10/05 10:37:53;;;;;;;7.78;0.95;;;22.40;57.50;;;;;;5136897;27;20016;-59
2021/10/05 10:40:31;;;;;;;9.00;0.90;;;22.40;57.50;;;;;;5136643;27;20057;-57
2021/10/05 10:42:57;;;;;;;4.90;1.00;;;22.50;57.10;;;;;;5136911;27;20027;-59
2021/10/05 10:45:22;;;;;;;5.03;1.00;;;22.50;56.30;;;;;;5136743;27;20076;-58
2021/10/05 10:47:54;;;;;;;4.43;1.17;;;22.50;57.30;;;;;;5136733;27;20102;-59
2021/10/05 10:50:20;;;;;;;2.20;0.60;;;22.50;57.40;;;;;;5136898;27;20019;-57
2021/10/05 10:52:47;;;;;;;5.65;1.05;;;22.50;57.20;;;;;;5136099;27;20023;-58
2021/10/05 10:55:19;;;;;;;3.67;0.77;;;22.50;57.10;;;;;;5136648;27;20293;-59
2021/10/05 10:57:54;;;;;;;4.03;1.27;;;22.60;56.90;;;;;;5136556;27;20106;-58
2021/10/05 11:00:21;;;;;;;1.77;0.70;;;22.70;56.80;;;;;;5136594;27;20114;-58
2021/10/05 11:02:55;;;;;;;1.73;0.60;;;22.70;56.60;;;;;;5136513;27;20023;-59
2021/10/05 11:05:22;;;;;;;2.33;0.70;;;22.60;56.70;;;;;;5118188;27;20047;-60
2021/10/05 11:07:53;;;;;;;5.07;1.00;;;22.60;56.70;;;;;;5136409;27;20102;-60
2021/10/05 11:10:30;;;;;;;2.67;0.68;;;22.60;56.60;;;;;;5136698;27;20027;-59
2021/10/05 11:13:01;;;;;;;4.55;0.98;;;22.70;56.50;;;;;;5136582;27;20023;-60
2021/10/05 11:15:34;;;;;;;1.67;0.77;;;22.70;56.40;;;;;;5136237;27;20020;-59
2021/10/05 11:18:10;;;;;;;2.92;0.90;;;22.70;56.30;;;;;;5136244;27;20027;-60
2021/10/05 11:20:47;;;;;;;4.90;0.88;;;22.80;56.20;;;;;;5135907;27;20041;-58
2021/10/05 11:23:18;;;;;;;2.80;0.80;;;22.80;56.10;;;;;;5135986;27;20039;-58
2021/10/05 11:25:46;;;;;;;3.72;0.90;;;22.80;56.00;;;;;;5135842;27;20024;-58
2021/10/05 11:28:14;;;;;;;2.22;0.70;;;22.80;55.90;;;;;;5135877;27;20030;-59
2021/10/05 11:30:47;;;;;;;2.00;0.60;;;22.90;55.80;;;;;;5136189;27;20031;-59
2021/10/05 11:33:30;;;;;;;2.55;0.70;;;22.90;55.70;;;;;;5135905;27;20031;-58
2021/10/05 11:35:59;;;;;;;3.50;0.95;;;23.00;55.70;;;;;;5135723;27;20019;-59
2021/10/05 11:38:41;;;;;;;7.53;0.93;;;23.00;55.60;;;;;;5135717;27;20072;-60
2021/10/05 11:41:07;;;;;;;2.55;0.70;;;23.00;55.40;;;;;;5135709;27;20379;-60
2021/10/05 11:43:39;;;;;;;3.05;0.80;;;23.10;55.40;;;;;;5135535;27;20026;-60
2021/10/05 11:46:19;;;;;;;3.00;0.93;;;23.10;55.20;;;;;;5135429;27;20027;-58
2021/10/05 11:48:47;;;;;;;1.90;0.63;;;23.20;55.10;;;;;;5135743;27;20062;-59
2021/10/05 11:51:14;;;;;;;5.15;0.90;;;23.20;55.00;;;;;;5135469;27;20051;-58
2021/10/05 11:53:40;;;;;;;4.25;0.90;;;23.20;54.90;;;;;;5135844;27;20065;-58
2021/10/05 11:56:09;;;;;;;3.58;0.77;;;23.20;54.80;;;;;;5099922;27;20085;-59
2021/10/05 11:58:41;;;;;;;3.20;0.90;;;23.30;54.70;;;;;;5135585;27;20030;-58
2021/10/05 12:01:16;;;;;;;4.68;0.85;;;23.30;54.60;;;;;;5135539;27;20092;-59
2021/10/05 12:03:44;;;;;;;3.05;0.60;;;23.40;54.50;;;;;;5134971;27;20035;-59
2021/10/05 12:06:10;;;;;;;1.83;0.73;;;23.40;54.40;;;;;;5134775;27;20011;-59
2021/10/05 12:08:45;;;;;;;2.92;0.82;;;23.40;54.40;;;;;;5135210;27;20558;-59
2021/10/05 12:11:11;;;;;;;1.58;0.60;;;23.40;54.00;;;;;;5135064;27;20095;-60
2021/10/05 12:13:36;;;;;;;3.38;1.00;;;23.40;53.90;;;;;;5134791;27;20379;-60
2021/10/05 12:16:13;;;;;;;2.33;0.75;;;23.30;54.20;;;;;;5135219;27;20023;-59
2021/10/05 12:18:38;;;;;;;4.22;0.82;;;23.20;54.30;;;;;;5116487;27;20478;-59
2021/10/05 12:21:06;;;;;;;2.75;0.75;;;23.20;54.40;;;;;;5134947;27;20035;-59
2021/10/05 12:23:32;;;;;;;2.00;0.60;;;23.20;54.50;;;;;;5135211;27;20474;-59
2021/10/05 12:26:11;;;;;;;2.72;0.93;;;23.20;54.50;;;;;;5134802;27;20055;-60
2021/10/05 12:28:38;;;;;;;2.20;0.80;;;23.10;54.60;;;;;;5134636;27;20359;-59
2021/10/05 12:31:16;;;;;;;2.10;0.73;;;23.10;54.60;;;;;;5134972;27;20092;-61
2021/10/05 12:33:53;;;;;;;5.32;1.27;;;23.10;54.70;;;;;;5134403;27;20027;-60
2021/10/05 12:36:22;;;;;;;1.60;0.70;;;23.00;54.70;;;;;;5134583;27;20019;-60
2021/10/05 12:38:47;;;;;;;3.22;0.77;;;23.00;54.80;;;;;;5134460;27;20204;-60
2021/10/05 12:41:13;;;;;;;2.33;0.73;;;23.00;54.90;;;;;;5134526;27;20540;-60
2021/10/05 12:43:41;;;;;;;1.92;0.77;;;22.90;54.90;;;;;;5116289;27;20102;-61
2021/10/05 12:46:29;;;;;;;1.38;0.60;;;22.90;54.90;;;;;;5134430;27;20019;-61
2021/10/05 12:48:57;;;;;;;3.08;0.70;;;22.90;55.10;;;;;;5134616;27;20045;-61